sensor_id;sensor_type;location;lat;lon;timestamp;temperature;humidity
324;DHT22;149;51.094;17.002;2023-01-29T00:07:48;0.50;99.90
324;DHT22;149;51.094;17.002;2023-01-29T00:18:23;0.10;99.90
324;DHT22;149;51.094;17.002;2023-01-29T00:23:41;0.30;99.90
324;DHT22;149;51.094;17.002;2023-01-29T00:26:11;0.20;99.90
324;DHT22;149;51.094;17.002;2023-01-29T00:28:47;0.40;99.90
324;DHT22;149;51.094;17.002;2023-01-29T00:31:18;0.40;99.90
324;DHT22;149;51.094;17.002;2023-01-29T00:33:48;0.30;99.90
324;DHT22;149;51.094;17.002;2023-01-29T00:41:37;0.00;99.90
324;DHT22;149;51.094;17.002;2023-01-29T00:44:29;-0.10;99.90
324;DHT22;149;51.094;17.002;2023-01-29T00:47:15;-0.20;99.90
324;DHT22;149;51.094;17.002;2023-01-29T00:50:00;-0.20;99.90
324;DHT22;149;51.094;17.002;2023-01-29T00:52:28;-0.20;99.90
324;DHT22;149;51.094;17.002;2023-01-29T01:05:39;-0.20;99.90
324;DHT22;149;51.094;17.002;2023-01-29T01:18:56;-0.10;99.90
324;DHT22;149;51.094;17.002;2023-01-29T01:21:32;0.20;99.90
324;DHT22;149;51.094;17.002;2023-01-29T01:24:00;0.30;99.90
324;DHT22;149;51.094;17.002;2023-01-29T01:26:29;0.40;99.90
324;DHT22;149;51.094;17.002;2023-01-29T01:28:56;0.50;99.90
324;DHT22;149;51.094;17.002;2023-01-29T01:31:25;0.40;99.90
324;DHT22;149;51.094;17.002;2023-01-29T01:33:53;0.50;99.90
324;DHT22;149;51.094;17.002;2023-01-29T01:36:21;0.70;99.90
324;DHT22;149;51.094;17.002;2023-01-29T01:38:51;0.90;99.90
324;DHT22;149;51.094;17.002;2023-01-29T01:41:20;0.80;99.90
324;DHT22;149;51.094;17.002;2023-01-29T01:43:59;0.70;99.90
324;DHT22;149;51.094;17.002;2023-01-29T01:46:35;0.50;99.90
324;DHT22;149;51.094;17.002;2023-01-29T01:49:09;0.60;99.90
324;DHT22;149;51.094;17.002;2023-01-29T01:51:45;0.60;99.90
324;DHT22;149;51.094;17.002;2023-01-29T01:54:21;0.60;99.90
324;DHT22;149;51.094;17.002;2023-01-29T01:56:54;0.50;99.90
324;DHT22;149;51.094;17.002;2023-01-29T01:59:32;0.30;99.90
324;DHT22;149;51.094;17.002;2023-01-29T02:02:01;0.40;99.90
324;DHT22;149;51.094;17.002;2023-01-29T02:04:47;0.40;99.90
324;DHT22;149;51.094;17.002;2023-01-29T02:07:34;0.60;99.90
324;DHT22;149;51.094;17.002;2023-01-29T02:10:21;0.40;99.90
324;DHT22;149;51.094;17.002;2023-01-29T02:26:17;0.20;99.90
324;DHT22;149;51.094;17.002;2023-01-29T02:37:08;0.10;99.90
324;DHT22;149;51.094;17.002;2023-01-29T02:45:48;0.10;99.90
324;DHT22;149;51.094;17.002;2023-01-29T02:54:01;0.10;99.90
324;DHT22;149;51.094;17.002;2023-01-29T02:56:45;0.20;99.90
324;DHT22;149;51.094;17.002;2023-01-29T02:59:19;0.50;99.90
324;DHT22;149;51.094;17.002;2023-01-29T03:07:36;0.40;99.90
324;DHT22;149;51.094;17.002;2023-01-29T03:21:03;0.50;99.90
324;DHT22;149;51.094;17.002;2023-01-29T03:23:56;0.60;99.90
324;DHT22;149;51.094;17.002;2023-01-29T03:26:45;0.80;99.90
324;DHT22;149;51.094;17.002;2023-01-29T03:29:33;0.70;99.90
324;DHT22;149;51.094;17.002;2023-01-29T03:32:22;0.60;99.90
324;DHT22;149;51.094;17.002;2023-01-29T03:34:57;0.80;99.90
324;DHT22;149;51.094;17.002;2023-01-29T03:37:43;0.80;99.90
324;DHT22;149;51.094;17.002;2023-01-29T03:40:54;0.80;99.90
324;DHT22;149;51.094;17.002;2023-01-29T03:48:40;0.50;99.90
324;DHT22;149;51.094;17.002;2023-01-29T03:51:26;0.40;99.90
324;DHT22;149;51.094;17.002;2023-01-29T03:56:44;0.40;99.90
324;DHT22;149;51.094;17.002;2023-01-29T04:02:05;0.60;99.90
324;DHT22;149;51.094;17.002;2023-01-29T04:04:37;0.60;99.90
324;DHT22;149;51.094;17.002;2023-01-29T04:07:12;0.60;99.90
324;DHT22;149;51.094;17.002;2023-01-29T04:12:27;0.30;99.90
324;DHT22;149;51.094;17.002;2023-01-29T04:25:45;0.50;99.90
324;DHT22;149;51.094;17.002;2023-01-29T04:31:23;0.50;99.90
324;DHT22;149;51.094;17.002;2023-01-29T04:34:12;0.60;99.90
324;DHT22;149;51.094;17.002;2023-01-29T04:37:04;0.50;99.90
324;DHT22;149;51.094;17.002;2023-01-29T04:39:52;0.50;99.90
324;DHT22;149;51.094;17.002;2023-01-29T04:42:36;0.30;99.90
324;DHT22;149;51.094;17.002;2023-01-29T04:45:26;0.30;99.90
324;DHT22;149;51.094;17.002;2023-01-29T04:50:35;0.30;99.90
324;DHT22;149;51.094;17.002;2023-01-29T04:53:11;0.30;99.90
324;DHT22;149;51.094;17.002;2023-01-29T04:58:40;0.50;99.90
324;DHT22;149;51.094;17.002;2023-01-29T05:01:13;0.40;99.90
324;DHT22;149;51.094;17.002;2023-01-29T05:03:45;0.40;99.90
324;DHT22;149;51.094;17.002;2023-01-29T05:06:15;0.40;99.90
324;DHT22;149;51.094;17.002;2023-01-29T05:08:44;0.40;99.90
324;DHT22;149;51.094;17.002;2023-01-29T05:11:12;0.40;99.90
324;DHT22;149;51.094;17.002;2023-01-29T05:13:42;0.30;99.90
324;DHT22;149;51.094;17.002;2023-01-29T05:16:27;0.10;99.90
324;DHT22;149;51.094;17.002;2023-01-29T05:18:55;0.10;99.90
324;DHT22;149;51.094;17.002;2023-01-29T05:21:22;0.20;99.90
324;DHT22;149;51.094;17.002;2023-01-29T05:24:09;0.30;99.90
324;DHT22;149;51.094;17.002;2023-01-29T05:26:37;0.30;99.90
324;DHT22;149;51.094;17.002;2023-01-29T05:29:22;0.30;99.90
324;DHT22;149;51.094;17.002;2023-01-29T05:31:50;0.30;99.90
324;DHT22;149;51.094;17.002;2023-01-29T05:34:17;0.20;99.90
324;DHT22;149;51.094;17.002;2023-01-29T05:36:44;0.10;99.90
324;DHT22;149;51.094;17.002;2023-01-29T05:39:10;0.20;99.90
324;DHT22;149;51.094;17.002;2023-01-29T05:41:37;0.10;99.90
324;DHT22;149;51.094;17.002;2023-01-29T05:44:05;0.20;99.90
324;DHT22;149;51.094;17.002;2023-01-29T05:46:32;0.20;99.90
324;DHT22;149;51.094;17.002;2023-01-29T05:48:59;0.30;99.90
324;DHT22;149;51.094;17.002;2023-01-29T05:51:26;0.40;99.90
324;DHT22;149;51.094;17.002;2023-01-29T05:53:53;0.20;99.90
324;DHT22;149;51.094;17.002;2023-01-29T05:56:19;0.20;99.90
324;DHT22;149;51.094;17.002;2023-01-29T05:58:47;0.10;99.90
324;DHT22;149;51.094;17.002;2023-01-29T06:01:19;0.00;99.90
324;DHT22;149;51.094;17.002;2023-01-29T06:03:47;-0.10;99.90
324;DHT22;149;51.094;17.002;2023-01-29T06:06:15;-0.10;99.90
324;DHT22;149;51.094;17.002;2023-01-29T06:08:42;0.00;99.90
324;DHT22;149;51.094;17.002;2023-01-29T06:11:11;0.00;99.90
324;DHT22;149;51.094;17.002;2023-01-29T06:13:38;-0.10;99.90
324;DHT22;149;51.094;17.002;2023-01-29T06:16:06;-0.10;99.90
324;DHT22;149;51.094;17.002;2023-01-29T06:18:38;0.00;99.90
324;DHT22;149;51.094;17.002;2023-01-29T06:21:07;-0.10;99.90
324;DHT22;149;51.094;17.002;2023-01-29T06:23:35;0.10;99.90
324;DHT22;149;51.094;17.002;2023-01-29T06:26:13;0.10;99.90
324;DHT22;149;51.094;17.002;2023-01-29T06:28:41;0.00;99.90
324;DHT22;149;51.094;17.002;2023-01-29T06:31:09;-0.10;99.90
324;DHT22;149;51.094;17.002;2023-01-29T06:33:56;-0.10;99.90
324;DHT22;149;51.094;17.002;2023-01-29T06:36:24;-0.10;99.90
324;DHT22;149;51.094;17.002;2023-01-29T06:38:51;-0.20;99.90
324;DHT22;149;51.094;17.002;2023-01-29T06:41:18;-0.20;99.90
324;DHT22;149;51.094;17.002;2023-01-29T06:43:48;-0.40;99.90
324;DHT22;149;51.094;17.002;2023-01-29T06:46:15;-0.50;99.90
324;DHT22;149;51.094;17.002;2023-01-29T06:48:42;-0.40;99.90
324;DHT22;149;51.094;17.002;2023-01-29T06:51:10;-0.40;99.90
324;DHT22;149;51.094;17.002;2023-01-29T06:53:37;-0.50;99.90
324;DHT22;149;51.094;17.002;2023-01-29T06:56:06;-0.30;99.90
324;DHT22;149;51.094;17.002;2023-01-29T06:58:35;-0.40;99.90
324;DHT22;149;51.094;17.002;2023-01-29T07:01:04;-0.40;99.90
324;DHT22;149;51.094;17.002;2023-01-29T07:03:32;-0.40;99.90
324;DHT22;149;51.094;17.002;2023-01-29T07:06:00;-0.30;99.90
324;DHT22;149;51.094;17.002;2023-01-29T07:08:27;-0.10;99.90
324;DHT22;149;51.094;17.002;2023-01-29T07:10:58;0.20;99.90
324;DHT22;149;51.094;17.002;2023-01-29T07:13:26;0.40;99.90
324;DHT22;149;51.094;17.002;2023-01-29T07:15:53;0.20;99.90
324;DHT22;149;51.094;17.002;2023-01-29T07:18:23;0.10;99.90
324;DHT22;149;51.094;17.002;2023-01-29T07:20:50;0.00;99.90
324;DHT22;149;51.094;17.002;2023-01-29T07:23:17;-0.10;99.90
324;DHT22;149;51.094;17.002;2023-01-29T07:25:44;0.10;99.90
324;DHT22;149;51.094;17.002;2023-01-29T07:28:11;0.00;99.90
324;DHT22;149;51.094;17.002;2023-01-29T07:30:38;0.10;99.90
324;DHT22;149;51.094;17.002;2023-01-29T07:33:07;0.20;99.90
324;DHT22;149;51.094;17.002;2023-01-29T07:35:41;0.20;99.90
324;DHT22;149;51.094;17.002;2023-01-29T07:38:10;0.20;99.90
324;DHT22;149;51.094;17.002;2023-01-29T07:40:37;0.20;99.90
324;DHT22;149;51.094;17.002;2023-01-29T07:43:05;0.40;99.90
324;DHT22;149;51.094;17.002;2023-01-29T07:45:36;0.40;99.90
324;DHT22;149;51.094;17.002;2023-01-29T07:48:05;0.70;99.90
324;DHT22;149;51.094;17.002;2023-01-29T07:50:33;0.90;99.90
324;DHT22;149;51.094;17.002;2023-01-29T07:53:07;1.20;99.90
324;DHT22;149;51.094;17.002;2023-01-29T07:55:43;1.20;99.90
324;DHT22;149;51.094;17.002;2023-01-29T07:58:10;1.00;99.90
324;DHT22;149;51.094;17.002;2023-01-29T08:00:37;0.90;99.90
324;DHT22;149;51.094;17.002;2023-01-29T08:03:08;0.80;99.90
324;DHT22;149;51.094;17.002;2023-01-29T08:05:36;0.70;99.90
324;DHT22;149;51.094;17.002;2023-01-29T08:08:04;0.80;99.90
324;DHT22;149;51.094;17.002;2023-01-29T08:10:38;0.80;99.90
324;DHT22;149;51.094;17.002;2023-01-29T08:13:06;0.90;99.90
324;DHT22;149;51.094;17.002;2023-01-29T08:15:36;0.90;99.90
324;DHT22;149;51.094;17.002;2023-01-29T08:18:05;1.20;99.90
324;DHT22;149;51.094;17.002;2023-01-29T08:20:32;1.30;99.90
324;DHT22;149;51.094;17.002;2023-01-29T08:23:14;1.40;99.90
324;DHT22;149;51.094;17.002;2023-01-29T08:25:41;1.30;99.90
324;DHT22;149;51.094;17.002;2023-01-29T08:28:08;1.30;99.90
324;DHT22;149;51.094;17.002;2023-01-29T08:30:39;1.90;99.90
324;DHT22;149;51.094;17.002;2023-01-29T08:33:09;1.40;99.90
324;DHT22;149;51.094;17.002;2023-01-29T08:35:36;1.50;99.90
324;DHT22;149;51.094;17.002;2023-01-29T08:38:06;1.70;99.90
324;DHT22;149;51.094;17.002;2023-01-29T08:40:35;1.60;99.90
324;DHT22;149;51.094;17.002;2023-01-29T08:43:07;1.80;99.90
324;DHT22;149;51.094;17.002;2023-01-29T08:45:40;1.90;99.90
324;DHT22;149;51.094;17.002;2023-01-29T08:48:08;1.70;99.90
324;DHT22;149;51.094;17.002;2023-01-29T08:50:36;1.80;99.90
324;DHT22;149;51.094;17.002;2023-01-29T08:53:07;1.90;99.90
324;DHT22;149;51.094;17.002;2023-01-29T08:55:35;2.10;99.90
324;DHT22;149;51.094;17.002;2023-01-29T08:58:07;2.10;99.90
324;DHT22;149;51.094;17.002;2023-01-29T09:00:34;2.20;99.90
324;DHT22;149;51.094;17.002;2023-01-29T09:03:01;2.20;99.90
324;DHT22;149;51.094;17.002;2023-01-29T09:05:29;2.10;99.90
324;DHT22;149;51.094;17.002;2023-01-29T09:07:59;2.10;99.90
324;DHT22;149;51.094;17.002;2023-01-29T09:10:26;2.10;99.90
324;DHT22;149;51.094;17.002;2023-01-29T09:12:53;2.30;99.90
324;DHT22;149;51.094;17.002;2023-01-29T09:15:26;2.50;99.90
324;DHT22;149;51.094;17.002;2023-01-29T09:18:10;2.90;99.90
324;DHT22;149;51.094;17.002;2023-01-29T09:20:40;2.80;99.90
324;DHT22;149;51.094;17.002;2023-01-29T09:23:09;2.70;99.90
324;DHT22;149;51.094;17.002;2023-01-29T09:25:41;2.60;99.90
324;DHT22;149;51.094;17.002;2023-01-29T09:28:32;2.50;99.90
324;DHT22;149;51.094;17.002;2023-01-29T09:31:12;2.80;99.90
324;DHT22;149;51.094;17.002;2023-01-29T09:33:55;2.90;99.90
324;DHT22;149;51.094;17.002;2023-01-29T09:36:26;2.90;99.90
324;DHT22;149;51.094;17.002;2023-01-29T09:39:02;3.00;99.90
324;DHT22;149;51.094;17.002;2023-01-29T09:41:55;3.30;99.90
324;DHT22;149;51.094;17.002;2023-01-29T09:45:32;3.30;99.90
324;DHT22;149;51.094;17.002;2023-01-29T09:47:40;3.50;99.90
324;DHT22;149;51.094;17.002;2023-01-29T09:50:35;3.60;99.90
324;DHT22;149;51.094;17.002;2023-01-29T09:53:29;3.80;99.90
324;DHT22;149;51.094;17.002;2023-01-29T09:56:10;3.90;99.90
324;DHT22;149;51.094;17.002;2023-01-29T09:58:41;3.80;99.90
324;DHT22;149;51.094;17.002;2023-01-29T10:01:35;3.90;99.90
324;DHT22;149;51.094;17.002;2023-01-29T10:07:21;3.80;99.90
324;DHT22;149;51.094;17.002;2023-01-29T10:10:02;4.20;99.90
324;DHT22;149;51.094;17.002;2023-01-29T10:21:18;4.00;99.90
324;DHT22;149;51.094;17.002;2023-01-29T10:26:51;4.30;99.90
324;DHT22;149;51.094;17.002;2023-01-29T10:29:21;4.10;99.90
324;DHT22;149;51.094;17.002;2023-01-29T10:31:56;4.30;99.90
324;DHT22;149;51.094;17.002;2023-01-29T10:34:42;4.60;99.90
324;DHT22;149;51.094;17.002;2023-01-29T10:37:36;4.60;99.90
324;DHT22;149;51.094;17.002;2023-01-29T10:40:20;4.50;99.90
324;DHT22;149;51.094;17.002;2023-01-29T10:48:51;4.60;99.90
324;DHT22;149;51.094;17.002;2023-01-29T10:52:20;4.60;99.90
324;DHT22;149;51.094;17.002;2023-01-29T10:54:48;4.70;99.90
324;DHT22;149;51.094;17.002;2023-01-29T10:57:37;4.50;99.90
324;DHT22;149;51.094;17.002;2023-01-29T11:00:09;4.40;99.90
324;DHT22;149;51.094;17.002;2023-01-29T11:02:43;4.50;99.90
324;DHT22;149;51.094;17.002;2023-01-29T11:05:25;4.40;99.90
324;DHT22;149;51.094;17.002;2023-01-29T11:08:07;4.40;99.90
324;DHT22;149;51.094;17.002;2023-01-29T11:10:41;4.40;99.90
324;DHT22;149;51.094;17.002;2023-01-29T11:13:13;4.30;99.90
324;DHT22;149;51.094;17.002;2023-01-29T11:15:46;4.50;99.90
324;DHT22;149;51.094;17.002;2023-01-29T11:18:13;4.60;99.90
324;DHT22;149;51.094;17.002;2023-01-29T11:20:43;4.60;99.90
324;DHT22;149;51.094;17.002;2023-01-29T11:23:32;4.80;99.90
324;DHT22;149;51.094;17.002;2023-01-29T11:26:07;4.60;99.90
324;DHT22;149;51.094;17.002;2023-01-29T11:28:47;4.70;99.90
324;DHT22;149;51.094;17.002;2023-01-29T11:31:35;4.70;99.90
324;DHT22;149;51.094;17.002;2023-01-29T11:34:17;4.60;99.90
324;DHT22;149;51.094;17.002;2023-01-29T11:36:45;4.60;99.90
324;DHT22;149;51.094;17.002;2023-01-29T11:39:20;4.60;99.90
324;DHT22;149;51.094;17.002;2023-01-29T11:42:04;4.90;99.90
324;DHT22;149;51.094;17.002;2023-01-29T11:44:41;5.20;99.90
324;DHT22;149;51.094;17.002;2023-01-29T11:50:23;4.60;99.90
324;DHT22;149;51.094;17.002;2023-01-29T11:53:00;4.50;99.90
324;DHT22;149;51.094;17.002;2023-01-29T11:55:36;4.60;99.90
324;DHT22;149;51.094;17.002;2023-01-29T11:58:25;4.50;99.90
324;DHT22;149;51.094;17.002;2023-01-29T12:01:03;4.70;99.90
324;DHT22;149;51.094;17.002;2023-01-29T12:03:41;4.60;99.90
324;DHT22;149;51.094;17.002;2023-01-29T12:06:40;4.60;99.90
324;DHT22;149;51.094;17.002;2023-01-29T12:09:16;4.40;99.90
324;DHT22;149;51.094;17.002;2023-01-29T12:11:45;4.20;99.90
324;DHT22;149;51.094;17.002;2023-01-29T12:14:30;4.00;99.90
324;DHT22;149;51.094;17.002;2023-01-29T12:17:05;4.30;99.90
324;DHT22;149;51.094;17.002;2023-01-29T12:20:00;4.40;99.90
324;DHT22;149;51.094;17.002;2023-01-29T12:22:47;4.20;99.90
324;DHT22;149;51.094;17.002;2023-01-29T12:34:00;4.00;99.90
324;DHT22;149;51.094;17.002;2023-01-29T12:37:10;4.00;99.90
324;DHT22;149;51.094;17.002;2023-01-29T12:39:39;4.00;99.90
324;DHT22;149;51.094;17.002;2023-01-29T12:42:18;3.90;99.90
324;DHT22;149;51.094;17.002;2023-01-29T12:44:58;4.00;99.90
324;DHT22;149;51.094;17.002;2023-01-29T12:47:47;4.20;99.90
324;DHT22;149;51.094;17.002;2023-01-29T12:50:26;4.30;99.90
324;DHT22;149;51.094;17.002;2023-01-29T12:55:50;4.40;99.90
324;DHT22;149;51.094;17.002;2023-01-29T12:58:34;4.50;99.90
324;DHT22;149;51.094;17.002;2023-01-29T13:01:13;4.50;99.90
324;DHT22;149;51.094;17.002;2023-01-29T13:03:59;4.30;99.90
324;DHT22;149;51.094;17.002;2023-01-29T13:06:40;4.30;99.90
324;DHT22;149;51.094;17.002;2023-01-29T13:09:13;4.30;99.90
324;DHT22;149;51.094;17.002;2023-01-29T13:14:23;4.50;99.90
324;DHT22;149;51.094;17.002;2023-01-29T13:17:27;4.40;99.90
324;DHT22;149;51.094;17.002;2023-01-29T13:20:02;4.40;99.90
324;DHT22;149;51.094;17.002;2023-01-29T13:22:38;4.50;99.90
324;DHT22;149;51.094;17.002;2023-01-29T13:25:14;4.50;99.90
324;DHT22;149;51.094;17.002;2023-01-29T13:27:43;4.70;99.90
324;DHT22;149;51.094;17.002;2023-01-29T13:30:34;4.60;99.90
324;DHT22;149;51.094;17.002;2023-01-29T13:33:04;4.70;99.90
324;DHT22;149;51.094;17.002;2023-01-29T13:35:39;4.80;99.90
324;DHT22;149;51.094;17.002;2023-01-29T13:38:28;4.80;99.90
324;DHT22;149;51.094;17.002;2023-01-29T13:41:04;4.80;99.90
324;DHT22;149;51.094;17.002;2023-01-29T13:43:40;4.80;99.90
324;DHT22;149;51.094;17.002;2023-01-29T13:46:14;4.50;99.90
324;DHT22;149;51.094;17.002;2023-01-29T13:48:46;4.80;99.90
324;DHT22;149;51.094;17.002;2023-01-29T13:51:18;4.80;99.90
324;DHT22;149;51.094;17.002;2023-01-29T13:53:57;4.50;99.90
324;DHT22;149;51.094;17.002;2023-01-29T13:56:59;4.50;99.90
324;DHT22;149;51.094;17.002;2023-01-29T13:59:52;4.30;99.90
324;DHT22;149;51.094;17.002;2023-01-29T14:02:24;4.10;99.90
324;DHT22;149;51.094;17.002;2023-01-29T14:10:34;4.00;99.90
324;DHT22;149;51.094;17.002;2023-01-29T14:18:26;4.00;99.90
324;DHT22;149;51.094;17.002;2023-01-29T14:23:47;4.10;99.90
324;DHT22;149;51.094;17.002;2023-01-29T14:29:34;3.90;99.90
324;DHT22;149;51.094;17.002;2023-01-29T14:32:17;3.90;99.90
324;DHT22;149;51.094;17.002;2023-01-29T14:35:23;3.90;99.90
324;DHT22;149;51.094;17.002;2023-01-29T14:38:01;3.80;99.90
324;DHT22;149;51.094;17.002;2023-01-29T14:40:33;3.70;99.90
324;DHT22;149;51.094;17.002;2023-01-29T14:43:30;3.80;99.90
324;DHT22;149;51.094;17.002;2023-01-29T14:52:31;3.90;99.90
324;DHT22;149;51.094;17.002;2023-01-29T14:55:07;4.00;99.90
324;DHT22;149;51.094;17.002;2023-01-29T14:57:37;4.00;99.90
324;DHT22;149;51.094;17.002;2023-01-29T15:00:27;4.10;99.90
324;DHT22;149;51.094;17.002;2023-01-29T15:02:56;3.80;99.90
324;DHT22;149;51.094;17.002;2023-01-29T15:05:35;3.60;99.90
324;DHT22;149;51.094;17.002;2023-01-29T15:08:22;3.50;99.90
324;DHT22;149;51.094;17.002;2023-01-29T15:10:57;3.30;99.90
324;DHT22;149;51.094;17.002;2023-01-29T15:13:52;3.20;99.90
324;DHT22;149;51.094;17.002;2023-01-29T15:16:34;3.20;99.90
324;DHT22;149;51.094;17.002;2023-01-29T15:19:17;3.30;99.90
324;DHT22;149;51.094;17.002;2023-01-29T15:22:15;3.30;99.90
324;DHT22;149;51.094;17.002;2023-01-29T15:24:44;3.40;99.90
324;DHT22;149;51.094;17.002;2023-01-29T15:27:17;3.30;99.90
324;DHT22;149;51.094;17.002;2023-01-29T15:29:57;3.20;99.90
324;DHT22;149;51.094;17.002;2023-01-29T15:32:35;3.20;99.90
324;DHT22;149;51.094;17.002;2023-01-29T15:35:30;3.20;99.90
324;DHT22;149;51.094;17.002;2023-01-29T15:38:20;3.20;99.90
324;DHT22;149;51.094;17.002;2023-01-29T15:40:55;3.20;99.90
324;DHT22;149;51.094;17.002;2023-01-29T15:45:58;3.20;99.90
324;DHT22;149;51.094;17.002;2023-01-29T15:48:38;3.20;99.90
324;DHT22;149;51.094;17.002;2023-01-29T15:51:09;3.20;99.90
324;DHT22;149;51.094;17.002;2023-01-29T15:53:45;3.20;99.90
324;DHT22;149;51.094;17.002;2023-01-29T15:56:20;3.20;99.90
324;DHT22;149;51.094;17.002;2023-01-29T15:58:50;3.30;99.90
324;DHT22;149;51.094;17.002;2023-01-29T16:01:17;3.20;99.90
324;DHT22;149;51.094;17.002;2023-01-29T16:03:48;3.30;99.90
324;DHT22;149;51.094;17.002;2023-01-29T16:06:16;3.10;99.90
324;DHT22;149;51.094;17.002;2023-01-29T16:08:49;3.10;99.90
324;DHT22;149;51.094;17.002;2023-01-29T16:11:18;3.00;99.90
324;DHT22;149;51.094;17.002;2023-01-29T16:13:47;2.80;99.90
324;DHT22;149;51.094;17.002;2023-01-29T16:16:23;2.80;99.90
324;DHT22;149;51.094;17.002;2023-01-29T16:18:51;2.70;99.90
324;DHT22;149;51.094;17.002;2023-01-29T16:21:33;2.80;99.90
324;DHT22;149;51.094;17.002;2023-01-29T16:24:10;2.80;99.90
324;DHT22;149;51.094;17.002;2023-01-29T16:26:44;2.90;99.90
324;DHT22;149;51.094;17.002;2023-01-29T16:29:15;3.10;99.90
324;DHT22;149;51.094;17.002;2023-01-29T16:31:46;3.00;99.90
324;DHT22;149;51.094;17.002;2023-01-29T16:34:39;2.80;99.90
324;DHT22;149;51.094;17.002;2023-01-29T16:37:27;2.80;99.90
324;DHT22;149;51.094;17.002;2023-01-29T16:39:56;3.00;99.90
324;DHT22;149;51.094;17.002;2023-01-29T16:42:28;2.90;99.90
324;DHT22;149;51.094;17.002;2023-01-29T16:49:56;2.90;99.90
324;DHT22;149;51.094;17.002;2023-01-29T16:52:33;2.80;99.90
324;DHT22;149;51.094;17.002;2023-01-29T16:55:12;2.70;99.90
324;DHT22;149;51.094;17.002;2023-01-29T16:57:43;2.70;99.90
324;DHT22;149;51.094;17.002;2023-01-29T17:00:22;2.70;99.90
324;DHT22;149;51.094;17.002;2023-01-29T17:02:53;2.60;99.90
324;DHT22;149;51.094;17.002;2023-01-29T17:05:26;2.50;99.90
324;DHT22;149;51.094;17.002;2023-01-29T17:07:57;2.50;99.90
324;DHT22;149;51.094;17.002;2023-01-29T17:10:26;2.60;99.90
324;DHT22;149;51.094;17.002;2023-01-29T17:12:59;2.30;99.90
324;DHT22;149;51.094;17.002;2023-01-29T17:18:24;2.00;99.90
324;DHT22;149;51.094;17.002;2023-01-29T17:20:51;2.10;99.90
324;DHT22;149;51.094;17.002;2023-01-29T17:23:19;2.30;99.90
324;DHT22;149;51.094;17.002;2023-01-29T17:25:46;2.40;99.90
324;DHT22;149;51.094;17.002;2023-01-29T17:28:15;2.70;99.90
324;DHT22;149;51.094;17.002;2023-01-29T17:30:44;2.80;99.90
324;DHT22;149;51.094;17.002;2023-01-29T17:33:30;2.80;99.90
324;DHT22;149;51.094;17.002;2023-01-29T17:35:58;2.90;99.90
324;DHT22;149;51.094;17.002;2023-01-29T17:47:14;2.60;99.90
324;DHT22;149;51.094;17.002;2023-01-29T17:49:43;2.50;99.90
324;DHT22;149;51.094;17.002;2023-01-29T17:52:10;2.50;99.90
324;DHT22;149;51.094;17.002;2023-01-29T17:54:38;2.40;99.90
324;DHT22;149;51.094;17.002;2023-01-29T17:57:05;2.20;99.90
324;DHT22;149;51.094;17.002;2023-01-29T17:59:33;2.10;99.90
324;DHT22;149;51.094;17.002;2023-01-29T18:02:00;2.20;99.90
324;DHT22;149;51.094;17.002;2023-01-29T18:04:27;2.10;99.90
324;DHT22;149;51.094;17.002;2023-01-29T18:06:55;2.20;99.90
324;DHT22;149;51.094;17.002;2023-01-29T18:09:23;2.20;99.90
324;DHT22;149;51.094;17.002;2023-01-29T18:11:51;2.20;99.90
324;DHT22;149;51.094;17.002;2023-01-29T18:14:19;2.10;99.90
324;DHT22;149;51.094;17.002;2023-01-29T18:16:48;2.20;99.90
324;DHT22;149;51.094;17.002;2023-01-29T18:19:23;2.40;99.90
324;DHT22;149;51.094;17.002;2023-01-29T18:21:57;2.60;99.90
324;DHT22;149;51.094;17.002;2023-01-29T18:24:26;2.60;99.90
324;DHT22;149;51.094;17.002;2023-01-29T18:26:54;2.40;99.90
324;DHT22;149;51.094;17.002;2023-01-29T18:29:25;2.50;99.90
324;DHT22;149;51.094;17.002;2023-01-29T18:31:59;2.50;99.90
324;DHT22;149;51.094;17.002;2023-01-29T18:34:26;2.40;99.90
324;DHT22;149;51.094;17.002;2023-01-29T18:36:54;2.40;99.90
324;DHT22;149;51.094;17.002;2023-01-29T18:39:31;2.30;99.90
324;DHT22;149;51.094;17.002;2023-01-29T18:42:00;2.30;99.90
324;DHT22;149;51.094;17.002;2023-01-29T18:44:27;2.20;99.90
324;DHT22;149;51.094;17.002;2023-01-29T18:46:55;2.20;99.90
324;DHT22;149;51.094;17.002;2023-01-29T18:49:23;2.20;99.90
324;DHT22;149;51.094;17.002;2023-01-29T18:51:50;2.20;99.90
324;DHT22;149;51.094;17.002;2023-01-29T18:54:17;2.40;99.90
324;DHT22;149;51.094;17.002;2023-01-29T18:56:46;2.40;99.90
324;DHT22;149;51.094;17.002;2023-01-29T18:59:38;2.50;99.90
324;DHT22;149;51.094;17.002;2023-01-29T19:02:12;2.60;99.90
324;DHT22;149;51.094;17.002;2023-01-29T19:04:41;2.60;99.90
324;DHT22;149;51.094;17.002;2023-01-29T19:07:09;2.50;99.90
324;DHT22;149;51.094;17.002;2023-01-29T19:09:36;2.40;99.90
324;DHT22;149;51.094;17.002;2023-01-29T19:12:05;2.50;99.90
324;DHT22;149;51.094;17.002;2023-01-29T19:14:33;2.40;99.90
324;DHT22;149;51.094;17.002;2023-01-29T19:17:06;2.50;99.90
324;DHT22;149;51.094;17.002;2023-01-29T19:19:57;2.70;99.90
324;DHT22;149;51.094;17.002;2023-01-29T19:22:28;2.60;99.90
324;DHT22;149;51.094;17.002;2023-01-29T19:24:55;2.40;99.90
324;DHT22;149;51.094;17.002;2023-01-29T19:27:22;2.40;99.90
324;DHT22;149;51.094;17.002;2023-01-29T19:29:52;2.30;99.90
324;DHT22;149;51.094;17.002;2023-01-29T19:32:19;2.30;99.90
324;DHT22;149;51.094;17.002;2023-01-29T19:34:46;2.30;99.90
324;DHT22;149;51.094;17.002;2023-01-29T19:37:13;2.20;99.90
324;DHT22;149;51.094;17.002;2023-01-29T19:39:40;2.30;99.90
324;DHT22;149;51.094;17.002;2023-01-29T19:42:07;2.30;99.90
324;DHT22;149;51.094;17.002;2023-01-29T19:44:35;2.10;99.90
324;DHT22;149;51.094;17.002;2023-01-29T19:47:02;1.90;99.90
324;DHT22;149;51.094;17.002;2023-01-29T19:49:32;1.80;99.90
324;DHT22;149;51.094;17.002;2023-01-29T19:52:00;1.90;99.90
324;DHT22;149;51.094;17.002;2023-01-29T19:54:27;1.80;99.90
324;DHT22;149;51.094;17.002;2023-01-29T19:56:55;1.80;99.90
324;DHT22;149;51.094;17.002;2023-01-29T19:59:22;1.80;99.90
324;DHT22;149;51.094;17.002;2023-01-29T20:01:49;1.70;99.90
324;DHT22;149;51.094;17.002;2023-01-29T20:04:17;1.70;99.90
324;DHT22;149;51.094;17.002;2023-01-29T20:06:44;1.60;99.90
324;DHT22;149;51.094;17.002;2023-01-29T20:09:11;1.50;99.90
324;DHT22;149;51.094;17.002;2023-01-29T20:11:38;1.40;99.90
324;DHT22;149;51.094;17.002;2023-01-29T20:14:05;1.20;99.90
324;DHT22;149;51.094;17.002;2023-01-29T20:16:32;1.10;99.90
324;DHT22;149;51.094;17.002;2023-01-29T20:18:59;1.00;99.90
324;DHT22;149;51.094;17.002;2023-01-29T20:21:41;0.90;99.90
324;DHT22;149;51.094;17.002;2023-01-29T20:24:11;0.90;99.90
324;DHT22;149;51.094;17.002;2023-01-29T20:26:38;1.00;99.90
324;DHT22;149;51.094;17.002;2023-01-29T20:29:06;1.00;99.90
324;DHT22;149;51.094;17.002;2023-01-29T20:31:33;1.00;99.90
324;DHT22;149;51.094;17.002;2023-01-29T20:34:00;1.00;99.90
324;DHT22;149;51.094;17.002;2023-01-29T20:36:28;1.10;99.90
324;DHT22;149;51.094;17.002;2023-01-29T20:38:55;1.10;99.90
324;DHT22;149;51.094;17.002;2023-01-29T20:41:22;1.20;99.90
324;DHT22;149;51.094;17.002;2023-01-29T20:43:49;1.20;99.90
324;DHT22;149;51.094;17.002;2023-01-29T20:46:18;1.40;99.90
324;DHT22;149;51.094;17.002;2023-01-29T20:48:45;1.20;99.90